Wiseton, Canada
Current Conditions -  °F | °C
As of 9:00 AM on Thursday 30 Oct 2014 (Local Time) from CYKY Reporting Station
Haze Haze  
Wind Chill: 20°   Ceiling: 200
Heat Index: 30°   Visibility: 6mi
Dew Point: 28°   Wind: 14mph
Humidity: 93%   Direction: 120°ESE
Pressure: 30.35"   Gusts: NA
Location:  51.32°N, 107.65°W
Report Text: CYKY 301500Z 12012KT 6SM BR OVC002 M01/M02 A3035 RMK ST8 VIS 2 S SLP310
Loading
Personal Weather Stations






























Interactive Weather Map
Tropical Storm Tracking
New forecast layout! Learn more

10-Day Weather Forecast

Advertisements
Track Severe Weather on mobile